Airfield :
LOGIN :

Register | Disclaimer

   EN    FR    IT 

 










Legend :    VFR   Marginal VFR   IFR   Intensive IFR   Very Intensive IFR
Visi :
Ceiling :
>= 8 km
>= 3000ft
5 to 8 km
1000 to 3000 ft
1500m to 5 km
500 to 1000 ft
800 to 1500m
200 to 500 ft
< 800m
< 200 ft
Symbols :   Thunderstorms  Fog  Heavy snow  Heavy precipitations  Wind > 20 kt
SIGMETs :     Misc.  Thunderstorms  Icing  Turbulence  Mountain Waves  Volcanic Ashes







- Airport Elevation : 194 ft


EBCV - Chièvres

CURRENT METAR :
  • 151525Z AUTO 26004KT 9999 OVC008/// 02/02 Q0996 GRN

EXPIRED METARs :
  • 151455Z AUTO 20005KT 9999 OVC007/// 02/02 Q0996 GRN
  • 151425Z AUTO 20005KT 9999 OVC007/// 02/02 Q0996 GRN
  • 151355Z AUTO 21006KT 9999 OVC008/// 03/02 Q0995 GRN
  • 151325Z AUTO 24008KT 9999 OVC008/// 03/02 Q0995 GRN
  • 151255Z AUTO 24009KT 9999 OVC011/// 03/02 Q0995 GRN

TAF AMD TAF EBCV
Valid from the 15 at 13:00 until the 15 at 22:00 UTC


151412Z 1513/1522 24005KT 9999 SCT015 BKN025
TEMPO 1513/1518 9999 BKN008
TEMPO 1513/1518 5000 -SHRA SCT012 BKN020
BECMG 1518/1520 33005KT SCT008 BKN015 BY EBWM
No reported NOTAMs for that airfield.



MET'MAP, your aeronautical weather chart ! - Copyright ORBIFLY December 2007 - Disclaimer

ORBIFLY MET'MAP TEAM :

Programming & Development : Alexandra Zaïnal
Concept & Development : Baudouin d'Aumeries
Co-Development & Prog : Marc-Olivier Méhu
Technical & hardware support : Manuel Goepfert

Contact : metmap@orbifly.com




SOURCES & CREDITS :

   NOAA